Time;durP1;ratioP1;P1;durP2;ratioP2;P2;SDS_P1;SDS_P2;PMS_P1;PMS_P2;Temp;Humidity;BMP_temperature;BMP_pressure;BME280_temperature;BME280_humidity;BME280_pressure;Samples;Min_cycle;Max_cycle;Signal;HPM_P1;HPM_P2
2023/01/10 00:01:45;;;;;;;0.30;0.20;;;4.40;99.90;;;;;;5073244;28;20485;-80
2023/01/10 00:04:12;;;;;;;0.30;0.20;;;4.40;99.90;;;;;;5073312;28;20461;-80
2023/01/10 00:06:39;;;;;;;0.30;0.30;;;4.40;99.90;;;;;;5072990;28;20941;-80
2023/01/10 00:09:05;;;;;;;0.30;0.30;;;4.50;99.90;;;;;;5072955;28;20937;-80
2023/01/10 00:14:18;;;;;;;0.30;0.20;;;4.40;99.90;;;;;;5073271;28;20960;-80
2023/01/10 00:16:45;;;;;;;0.30;0.20;;;4.40;99.90;;;;;;5072753;28;21003;-80
2023/01/10 00:19:12;;;;;;;0.30;0.30;;;4.50;99.90;;;;;;5073155;28;20523;-80
2023/01/10 00:21:39;;;;;;;0.30;0.20;;;4.50;99.90;;;;;;5073144;28;20488;-80
2023/01/10 00:24:16;;;;;;;0.30;0.20;;;4.50;99.90;;;;;;5072783;28;20992;-80
2023/01/10 00:26:49;;;;;;;0.30;0.27;;;4.50;99.90;;;;;;5072883;28;20436;-81
2023/01/10 00:29:18;;;;;;;0.30;0.20;;;4.50;99.90;;;;;;5073105;28;20430;-82
2023/01/10 00:31:45;;;;;;;0.30;0.30;;;4.50;99.90;;;;;;5072807;28;20832;-81
2023/01/10 00:34:12;;;;;;;0.30;0.20;;;4.50;99.90;;;;;;5072977;28;20470;-82
2023/01/10 00:36:38;;;;;;;0.30;0.30;;;4.50;99.90;;;;;;5073039;28;20472;-82
2023/01/10 00:39:09;;;;;;;0.30;0.20;;;4.40;99.90;;;;;;5073059;28;20425;-82
2023/01/10 00:44:21;;;;;;;0.40;0.30;;;4.40;99.90;;;;;;5072869;28;20583;-81
2023/01/10 00:46:48;;;;;;;0.30;0.30;;;4.40;99.90;;;;;;5072895;28;20525;-82
2023/01/10 00:49:16;;;;;;;0.30;0.30;;;4.40;99.90;;;;;;5072900;28;20457;-81
2023/01/10 00:51:43;;;;;;;0.30;0.30;;;4.40;99.90;;;;;;5072868;28;20441;-81
2023/01/10 00:54:11;;;;;;;0.30;0.20;;;4.30;99.90;;;;;;5072770;28;20481;-81
2023/01/10 00:56:38;;;;;;;0.30;0.30;;;4.30;99.90;;;;;;5073249;28;20441;-81
2023/01/10 00:59:05;;;;;;;0.30;0.30;;;4.20;99.90;;;;;;5076563;28;20441;-81
2023/01/10 01:01:33;;;;;;;0.30;0.20;;;4.20;99.90;;;;;;5076428;28;20521;-81
2023/01/10 01:04:00;;;;;;;0.30;0.30;;;4.30;99.90;;;;;;5076369;28;20454;-82
2023/01/10 01:06:27;;;;;;;0.47;0.33;;;4.30;99.90;;;;;;5076423;28;20464;-82
2023/01/10 01:08:54;;;;;;;0.30;0.20;;;4.20;99.90;;;;;;5076414;28;20452;-83
2023/01/10 01:11:21;;;;;;;0.30;0.20;;;4.20;99.90;;;;;;5076352;28;20460;-83
2023/01/10 01:13:47;;;;;;;0.30;0.30;;;4.20;99.90;;;;;;5076230;28;20453;-83
2023/01/10 01:16:14;;;;;;;0.40;0.30;;;4.20;99.90;;;;;;5075869;28;20552;-82
2023/01/10 01:18:42;;;;;;;0.43;0.37;;;4.10;99.90;;;;;;5076117;28;20445;-82
2023/01/10 01:21:09;;;;;;;0.97;0.30;;;4.10;99.90;;;;;;5076125;28;20477;-82
2023/01/10 01:23:36;;;;;;;0.30;0.30;;;4.10;99.90;;;;;;5075758;28;20949;-82
2023/01/10 01:26:04;;;;;;;0.30;0.30;;;4.10;99.90;;;;;;5075975;28;20473;-82
2023/01/10 01:28:31;;;;;;;0.30;0.20;;;4.10;99.90;;;;;;5076058;28;20543;-82
2023/01/10 01:30:57;;;;;;;0.30;0.30;;;4.10;99.90;;;;;;5075990;28;20444;-82
2023/01/10 01:33:24;;;;;;;0.30;0.30;;;4.10;99.90;;;;;;5075974;28;20551;-82
2023/01/10 01:35:52;;;;;;;0.30;0.20;;;4.10;99.90;;;;;;5075873;28;20472;-82
2023/01/10 01:38:19;;;;;;;0.30;0.30;;;4.10;99.90;;;;;;5075854;28;20445;-82
2023/01/10 01:40:46;;;;;;;0.40;0.30;;;4.10;99.90;;;;;;5075376;28;20483;-82
2023/01/10 01:43:23;;;;;;;0.30;0.20;;;4.10;99.90;;;;;;5075429;28;20456;-82
2023/01/10 01:45:50;;;;;;;0.30;0.20;;;4.10;99.90;;;;;;5075367;28;20469;-82
2023/01/10 01:48:23;;;;;;;0.30;0.30;;;4.10;99.90;;;;;;5075646;28;20506;-82
2023/01/10 01:50:55;;;;;;;0.30;0.20;;;4.10;99.90;;;;;;5075690;28;20441;-82
2023/01/10 01:53:27;;;;;;;0.30;0.20;;;4.10;99.90;;;;;;5075314;28;20781;-82
2023/01/10 01:55:57;;;;;;;0.30;0.20;;;4.00;99.90;;;;;;5075522;28;20462;-82
2023/01/10 01:58:29;;;;;;;0.30;0.20;;;4.00;99.90;;;;;;5075479;28;20452;-82
2023/01/10 02:00:57;;;;;;;0.30;0.30;;;3.90;99.90;;;;;;5075387;28;20469;-82
2023/01/10 02:03:24;;;;;;;0.30;0.30;;;4.00;99.90;;;;;;5075083;28;20987;-82
2023/01/10 02:05:51;;;;;;;0.30;0.20;;;4.00;99.90;;;;;;5075287;28;20470;-82
2023/01/10 02:08:19;;;;;;;0.30;0.20;;;4.00;99.90;;;;;;5075306;28;20445;-81
2023/01/10 02:10:52;;;;;;;0.40;0.30;;;4.10;99.90;;;;;;5075249;28;20455;-82
2023/01/10 02:13:23;;;;;;;0.40;0.37;;;4.10;99.90;;;;;;5074988;28;20441;-82
2023/01/10 02:15:50;;;;;;;0.30;0.20;;;4.20;99.90;;;;;;5074590;28;20980;-82
2023/01/10 02:18:17;;;;;;;0.30;0.20;;;4.20;99.90;;;;;;5075131;28;20478;-82
2023/01/10 02:20:57;;;;;;;0.30;0.20;;;4.20;99.90;;;;;;5074969;28;20480;-83
2023/01/10 02:24:09;;;;;;;0.30;0.30;;;4.20;99.90;;;;;;5075038;28;20441;-82
2023/01/10 02:26:55;;;;;;;0.30;0.20;;;4.20;99.90;;;;;;5044194;28;20446;-82
2023/01/10 02:30:01;;;;;;;0.30;0.30;;;4.20;99.90;;;;;;5074919;28;20430;-82
2023/01/10 02:32:37;;;;;;;0.30;0.20;;;4.20;99.90;;;;;;5074888;28;20418;-82
2023/01/10 02:35:16;;;;;;;0.30;0.20;;;4.20;99.90;;;;;;5074450;28;20991;-82
2023/01/10 02:37:51;;;;;;;0.30;0.30;;;4.20;99.90;;;;;;5074778;28;20406;-82
2023/01/10 02:40:24;;;;;;;0.30;0.20;;;4.20;99.90;;;;;;5074677;28;20436;-82
2023/01/10 02:42:58;;;;;;;0.30;0.20;;;4.10;99.90;;;;;;5074550;28;20461;-82
2023/01/10 02:45:29;;;;;;;0.30;0.30;;;4.10;99.90;;;;;;5074194;28;21000;-82
2023/01/10 02:47:58;;;;;;;0.30;0.20;;;4.00;99.90;;;;;;5074566;28;20460;-83
2023/01/10 02:50:50;;;;;;;0.30;0.20;;;4.00;99.90;;;;;;5074463;28;20450;-83
2023/01/10 02:53:21;;;;;;;0.30;0.20;;;4.00;99.90;;;;;;5074115;28;20964;-83
2023/01/10 02:56:15;;;;;;;0.30;0.20;;;4.00;99.90;;;;;;5074295;28;20465;-83
2023/01/10 02:59:02;;;;;;;0.30;0.20;;;4.00;99.90;;;;;;5074319;28;20438;-82
2023/01/10 03:01:36;;;;;;;0.30;0.30;;;4.00;99.90;;;;;;5074207;28;20469;-83
2023/01/10 03:04:12;;;;;;;0.30;0.27;;;4.00;99.90;;;;;;5074151;28;20469;-83
2023/01/10 03:06:45;;;;;;;0.30;0.20;;;4.10;99.90;;;;;;5074215;28;20426;-83
2023/01/10 03:09:19;;;;;;;0.30;0.20;;;4.10;99.90;;;;;;5074154;28;20434;-83
2023/01/10 03:11:49;;;;;;;0.40;0.30;;;4.00;99.90;;;;;;5074034;28;20831;-83
2023/01/10 03:14:20;;;;;;;0.30;0.20;;;4.10;99.90;;;;;;5073950;28;20466;-83
2023/01/10 03:16:51;;;;;;;0.30;0.30;;;4.10;99.90;;;;;;5073577;28;20489;-83
2023/01/10 03:19:22;;;;;;;0.30;0.20;;;4.10;99.90;;;;;;5073481;28;20440;-83
2023/01/10 03:21:53;;;;;;;0.30;0.20;;;4.00;99.90;;;;;;5073776;28;20473;-83
2023/01/10 03:24:24;;;;;;;0.30;0.20;;;4.00;99.90;;;;;;5073504;28;20469;-83
2023/01/10 03:26:57;;;;;;;0.30;0.30;;;4.00;99.90;;;;;;5074716;28;20437;-83
2023/01/10 03:29:28;;;;;;;0.30;0.20;;;4.00;99.90;;;;;;5073896;28;20497;-83
2023/01/10 03:32:00;;;;;;;0.30;0.30;;;4.00;99.90;;;;;;5073811;28;20430;-83
2023/01/10 03:34:28;;;;;;;0.30;0.20;;;4.00;99.90;;;;;;5073670;28;20476;-83
2023/01/10 03:37:02;;;;;;;0.30;0.20;;;4.00;99.90;;;;;;5073334;28;20450;-83
2023/01/10 03:39:34;;;;;;;0.60;0.37;;;3.90;99.90;;;;;;5073370;28;20441;-83
2023/01/10 03:42:09;;;;;;;0.40;0.30;;;4.00;99.90;;;;;;5073241;28;20982;-83
2023/01/10 03:44:43;;;;;;;0.30;0.20;;;4.00;99.90;;;;;;5073233;28;20579;-83
2023/01/10 03:47:15;;;;;;;0.30;0.30;;;4.00;99.90;;;;;;5073614;28;20787;-83
2023/01/10 03:49:46;;;;;;;0.30;0.20;;;4.10;99.90;;;;;;5073574;28;20430;-83
2023/01/10 03:52:15;;;;;;;0.30;0.20;;;4.10;99.90;;;;;;5073177;28;21007;-83
2023/01/10 03:54:43;;;;;;;0.30;0.20;;;4.10;99.90;;;;;;5073372;28;20473;-83
2023/01/10 03:57:16;;;;;;;0.30;0.20;;;4.10;99.90;;;;;;5073473;28;20450;-83
2023/01/10 03:59:43;;;;;;;3.80;0.40;;;4.10;99.90;;;;;;5073462;28;20433;-83
2023/01/10 04:02:10;;;;;;;0.30;0.30;;;4.00;99.90;;;;;;5073279;28;20489;-83
2023/01/10 04:04:36;;;;;;;0.40;0.30;;;4.00;99.90;;;;;;5073295;28;20467;-83
2023/01/10 04:07:04;;;;;;;0.30;0.20;;;4.00;99.90;;;;;;5073369;28;20460;-83
2023/01/10 04:09:31;;;;;;;0.30;0.30;;;4.00;99.90;;;;;;5073279;28;20444;-83
2023/01/10 04:11:58;;;;;;;0.30;0.20;;;4.00;99.90;;;;;;5072978;28;20449;-83
2023/01/10 04:14:25;;;;;;;0.30;0.30;;;4.00;99.90;;;;;;5073242;28;20476;-83
2023/01/10 04:16:51;;;;;;;0.40;0.40;;;3.90;99.90;;;;;;5072773;28;20972;-83
2023/01/10 04:19:18;;;;;;;0.30;0.20;;;3.90;99.90;;;;;;5073237;28;20457;-83
2023/01/10 04:21:45;;;;;;;0.30;0.20;;;4.00;99.90;;;;;;5073098;28;20481;-83
2023/01/10 04:24:13;;;;;;;0.30;0.20;;;3.90;99.90;;;;;;5073111;28;20465;-83
2023/01/10 04:26:39;;;;;;;0.30;0.30;;;3.90;99.90;;;;;;5072849;28;20454;-83
2023/01/10 04:29:06;;;;;;;0.30;0.30;;;3.90;99.90;;;;;;5073147;28;20449;-83
2023/01/10 04:31:33;;;;;;;0.30;0.20;;;3.80;99.90;;;;;;5073124;28;20441;-83
2023/01/10 04:33:59;;;;;;;0.60;0.60;;;3.80;99.90;;;;;;5077759;28;20464;-83
2023/01/10 04:36:26;;;;;;;0.30;0.20;;;3.70;99.90;;;;;;5077136;28;20822;-83
2023/01/10 04:38:53;;;;;;;0.30;0.20;;;3.70;99.90;;;;;;5076736;28;20952;-83
2023/01/10 04:41:21;;;;;;;0.30;0.20;;;3.60;99.90;;;;;;5076556;28;20936;-83
2023/01/10 04:43:48;;;;;;;0.30;0.30;;;3.60;99.90;;;;;;5076859;28;20446;-84
2023/01/10 04:46:15;;;;;;;0.30;0.30;;;3.60;99.90;;;;;;5076872;28;20444;-83
2023/01/10 04:48:42;;;;;;;0.30;0.20;;;3.70;99.90;;;;;;5076485;28;20445;-84
2023/01/10 04:51:09;;;;;;;0.30;0.20;;;3.70;99.90;;;;;;5076762;28;20449;-83
2023/01/10 04:53:35;;;;;;;0.30;0.30;;;3.80;99.90;;;;;;5076758;28;20438;-83
2023/01/10 04:56:04;;;;;;;0.30;0.20;;;3.70;99.90;;;;;;5076710;28;20492;-83
2023/01/10 04:58:34;;;;;;;0.30;0.20;;;3.70;99.90;;;;;;5076747;28;20471;-83
2023/01/10 05:01:07;;;;;;;0.30;0.30;;;3.80;99.90;;;;;;5076583;28;20429;-84
2023/01/10 05:03:34;;;;;;;0.30;0.20;;;3.80;99.90;;;;;;5077352;28;20480;-83
2023/01/10 05:06:01;;;;;;;0.30;0.30;;;3.80;99.90;;;;;;5076059;28;20472;-83
2023/01/10 05:08:27;;;;;;;0.30;0.30;;;3.80;99.90;;;;;;5076301;28;20445;-83
2023/01/10 05:10:54;;;;;;;0.30;0.20;;;3.80;99.90;;;;;;5076399;28;20461;-83
2023/01/10 05:13:21;;;;;;;0.40;0.30;;;3.80;99.90;;;;;;5076328;28;20449;-83
2023/01/10 05:15:49;;;;;;;0.30;0.20;;;3.90;99.90;;;;;;5075843;28;20484;-83
2023/01/10 05:18:15;;;;;;;0.40;0.40;;;3.90;99.90;;;;;;5075961;28;20445;-83
2023/01/10 05:20:42;;;;;;;1.03;0.37;;;3.90;99.90;;;;;;5076203;28;20452;-83
2023/01/10 05:23:09;;;;;;;0.40;0.30;;;3.90;99.90;;;;;;5075743;28;20492;-83
2023/01/10 05:25:35;;;;;;;0.60;0.60;;;3.90;99.90;;;;;;5075994;28;20476;-83
2023/01/10 05:28:02;;;;;;;0.30;0.20;;;3.90;99.90;;;;;;5075728;28;20937;-83
2023/01/10 05:30:29;;;;;;;0.30;0.30;;;3.90;99.90;;;;;;5076012;28;20441;-83
2023/01/10 05:32:57;;;;;;;0.30;0.20;;;4.00;99.90;;;;;;5075990;28;20454;-83
2023/01/10 05:35:24;;;;;;;0.30;0.20;;;4.00;99.90;;;;;;5075574;28;20999;-83
2023/01/10 05:37:51;;;;;;;0.30;0.20;;;4.00;99.90;;;;;;5075575;28;20968;-83
2023/01/10 05:40:18;;;;;;;0.30;0.20;;;4.00;99.90;;;;;;5075812;28;20450;-83
2023/01/10 05:42:44;;;;;;;0.30;0.20;;;4.00;99.90;;;;;;5075085;28;20476;-83
2023/01/10 05:45:11;;;;;;;0.37;0.27;;;4.00;99.90;;;;;;5075690;28;20470;-83
2023/01/10 05:47:38;;;;;;;0.30;0.30;;;4.00;99.90;;;;;;5075674;28;20445;-83
2023/01/10 05:50:07;;;;;;;1.83;0.57;;;4.00;99.90;;;;;;5075392;28;20457;-83
2023/01/10 05:52:34;;;;;;;10.03;0.80;;;4.00;99.90;;;;;;5075600;28;20442;-83
2023/01/10 05:55:01;;;;;;;0.30;0.30;;;4.10;99.90;;;;;;5075536;28;20465;-83
2023/01/10 05:57:27;;;;;;;0.30;0.20;;;4.10;99.90;;;;;;5075600;28;20448;-83
2023/01/10 05:59:54;;;;;;;0.30;0.20;;;4.10;99.90;;;;;;5075471;28;20449;-84
2023/01/10 06:02:21;;;;;;;0.30;0.20;;;4.10;99.90;;;;;;5075400;28;20485;-83
2023/01/10 06:04:48;;;;;;;0.40;0.30;;;4.10;99.90;;;;;;5075289;28;20527;-83
2023/01/10 06:07:16;;;;;;;0.30;0.30;;;4.00;99.90;;;;;;5075318;28;20457;-82
2023/01/10 06:09:43;;;;;;;0.30;0.30;;;4.00;99.90;;;;;;5075256;28;20453;-82
2023/01/10 06:12:10;;;;;;;0.30;0.20;;;3.90;99.90;;;;;;5075259;28;20445;-82
2023/01/10 06:14:36;;;;;;;0.30;0.30;;;3.90;99.90;;;;;;5074914;28;20476;-82
2023/01/10 06:17:07;;;;;;;0.30;0.30;;;3.70;99.90;;;;;;5075189;28;20430;-81
2023/01/10 06:19:34;;;;;;;0.30;0.20;;;3.60;99.90;;;;;;5075170;28;20436;-82
2023/01/10 06:22:00;;;;;;;0.30;0.20;;;3.50;99.90;;;;;;5074981;28;20456;-82
2023/01/10 06:24:29;;;;;;;0.30;0.30;;;3.50;99.90;;;;;;5074596;28;20469;-82
2023/01/10 06:26:55;;;;;;;0.30;0.20;;;3.50;99.90;;;;;;5074756;28;20441;-81
2023/01/10 06:29:22;;;;;;;0.30;0.20;;;3.50;99.90;;;;;;5074885;28;20460;-82
2023/01/10 06:31:49;;;;;;;0.43;0.40;;;3.60;99.90;;;;;;5074807;28;20445;-82
2023/01/10 06:34:15;;;;;;;0.40;0.33;;;3.60;99.90;;;;;;5074776;28;20457;-82
2023/01/10 06:36:42;;;;;;;0.80;0.40;;;3.70;99.90;;;;;;5074831;28;20430;-83
2023/01/10 06:39:09;;;;;;;0.30;0.30;;;3.70;99.90;;;;;;5074633;28;20461;-83
2023/01/10 06:41:37;;;;;;;0.30;0.20;;;3.70;99.90;;;;;;5074705;28;20449;-83
2023/01/10 06:44:04;;;;;;;0.43;0.43;;;3.70;99.90;;;;;;5074205;28;20550;-83
2023/01/10 06:46:31;;;;;;;0.30;0.30;;;3.70;99.90;;;;;;5074530;28;20445;-83
2023/01/10 06:48:57;;;;;;;0.30;0.30;;;3.70;99.90;;;;;;5074173;28;20941;-83
2023/01/10 06:51:24;;;;;;;0.30;0.30;;;3.70;99.90;;;;;;5074523;28;20445;-83
2023/01/10 06:53:51;;;;;;;0.30;0.20;;;3.70;99.90;;;;;;5074403;28;20473;-83
2023/01/10 06:56:18;;;;;;;0.30;0.30;;;3.70;99.90;;;;;;5073324;28;20963;-84
2023/01/10 06:58:48;;;;;;;0.30;0.30;;;3.70;99.90;;;;;;5074857;28;20892;-84
2023/01/10 07:01:16;;;;;;;0.30;0.20;;;3.70;99.90;;;;;;5074365;28;20430;-84
2023/01/10 07:03:43;;;;;;;0.30;0.20;;;3.80;99.90;;;;;;5073913;28;20488;-83
2023/01/10 07:06:10;;;;;;;0.30;0.30;;;3.80;99.90;;;;;;5074321;28;20545;-83
2023/01/10 07:08:37;;;;;;;1.53;0.40;;;3.80;99.90;;;;;;5074211;28;20448;-84
2023/01/10 07:11:04;;;;;;;0.30;0.30;;;3.90;99.90;;;;;;5073827;28;20445;-84
2023/01/10 07:13:30;;;;;;;0.30;0.30;;;3.80;99.90;;;;;;5074005;28;20808;-84
2023/01/10 07:16:03;;;;;;;0.30;0.20;;;3.80;99.90;;;;;;5073563;28;20486;-84
2023/01/10 07:18:30;;;;;;;0.30;0.30;;;3.80;99.90;;;;;;5073992;28;20426;-84
2023/01/10 07:20:57;;;;;;;0.40;0.30;;;3.80;99.90;;;;;;5074127;28;20479;-84
2023/01/10 07:23:24;;;;;;;0.30;0.20;;;3.80;99.90;;;;;;5073833;28;20477;-84
2023/01/10 07:25:51;;;;;;;0.30;0.30;;;3.80;99.90;;;;;;5073711;28;20473;-84
2023/01/10 07:28:17;;;;;;;0.30;0.30;;;3.80;99.90;;;;;;5074663;28;20445;-84
2023/01/10 07:30:44;;;;;;;0.60;0.50;;;3.70;99.90;;;;;;5073778;28;20449;-84
2023/01/10 07:33:12;;;;;;;0.30;0.20;;;3.70;99.90;;;;;;5073494;28;20964;-84
2023/01/10 07:35:39;;;;;;;0.40;0.30;;;3.80;99.90;;;;;;5073584;28;20469;-84
2023/01/10 07:38:06;;;;;;;0.40;0.30;;;3.70;99.90;;;;;;5073378;28;20953;-83
2023/01/10 07:40:32;;;;;;;0.30;0.30;;;3.70;99.90;;;;;;5073327;28;20456;-84
2023/01/10 07:43:01;;;;;;;0.30;0.20;;;3.70;99.90;;;;;;5073198;28;20991;-84
2023/01/10 07:45:29;;;;;;;0.30;0.20;;;3.70;99.90;;;;;;5073469;28;20449;-83
2023/01/10 07:47:57;;;;;;;0.50;0.30;;;3.70;99.90;;;;;;5073299;28;20446;-83
2023/01/10 07:50:25;;;;;;;0.50;0.50;;;3.70;99.90;;;;;;5073538;28;20437;-83
2023/01/10 07:52:52;;;;;;;0.40;0.37;;;3.80;99.90;;;;;;5073159;28;20979;-83
2023/01/10 07:55:19;;;;;;;0.30;0.30;;;3.80;99.90;;;;;;5073396;28;20473;-83
2023/01/10 07:57:46;;;;;;;0.30;0.20;;;3.70;99.90;;;;;;5073096;28;20449;-84
2023/01/10 08:00:13;;;;;;;0.30;0.30;;;3.80;99.90;;;;;;5073359;28;20452;-83
2023/01/10 08:02:40;;;;;;;0.30;0.30;;;3.80;99.90;;;;;;5072982;28;20457;-83
2023/01/10 08:05:07;;;;;;;0.50;0.40;;;3.90;99.90;;;;;;5073611;28;20875;-83
2023/01/10 08:07:36;;;;;;;0.50;0.50;;;3.90;99.90;;;;;;5073275;28;20453;-83
2023/01/10 08:10:03;;;;;;;0.37;0.30;;;3.80;99.90;;;;;;5073301;28;20858;-83
2023/01/10 08:12:31;;;;;;;0.30;0.20;;;3.80;99.90;;;;;;5072956;28;20433;-83
2023/01/10 08:14:58;;;;;;;0.40;0.30;;;3.90;99.90;;;;;;5072941;28;20538;-83
2023/01/10 08:17:25;;;;;;;0.40;0.30;;;3.90;99.90;;;;;;5073296;28;20422;-83
2023/01/10 08:19:52;;;;;;;0.70;0.30;;;4.00;99.90;;;;;;5073184;28;20445;-82
2023/01/10 08:22:18;;;;;;;5.10;1.03;;;4.00;99.90;;;;;;5073186;28;20452;-82
2023/01/10 08:24:46;;;;;;;0.30;0.30;;;4.00;99.90;;;;;;5073001;28;20489;-83
2023/01/10 08:27:13;;;;;;;0.30;0.30;;;4.00;99.90;;;;;;5073078;28;20448;-83
2023/01/10 08:29:40;;;;;;;0.30;0.30;;;4.10;99.90;;;;;;5073032;28;20449;-83
2023/01/10 08:32:08;;;;;;;0.30;0.30;;;4.20;99.90;;;;;;5072741;28;20453;-82
2023/01/10 08:34:34;;;;;;;0.30;0.20;;;4.20;99.90;;;;;;5073002;28;20469;-83
2023/01/10 08:37:01;;;;;;;0.30;0.20;;;4.30;99.90;;;;;;5073023;28;20449;-83
2023/01/10 08:39:29;;;;;;;0.30;0.20;;;4.30;99.90;;;;;;5072673;28;20445;-83
2023/01/10 08:41:57;;;;;;;0.30;0.30;;;4.30;99.90;;;;;;5073039;28;20476;-82
2023/01/10 08:44:25;;;;;;;0.30;0.30;;;4.30;99.90;;;;;;5072836;28;20513;-82
2023/01/10 08:46:52;;;;;;;0.30;0.20;;;4.40;99.90;;;;;;5072930;28;20503;-82
2023/01/10 08:49:18;;;;;;;0.30;0.30;;;4.50;99.90;;;;;;5072628;28;20961;-82
2023/01/10 08:51:45;;;;;;;0.30;0.20;;;4.60;99.90;;;;;;5072871;28;20456;-82
2023/01/10 08:54:12;;;;;;;0.30;0.20;;;4.60;99.90;;;;;;5072511;28;20880;-82
2023/01/10 08:56:39;;;;;;;0.87;0.40;;;4.70;99.90;;;;;;5072466;28;20976;-83
2023/01/10 08:59:08;;;;;;;0.30;0.30;;;4.70;99.90;;;;;;5072901;28;20437;-82
2023/01/10 09:01:35;;;;;;;0.30;0.30;;;4.70;99.90;;;;;;5072787;28;20821;-82
2023/01/10 09:04:01;;;;;;;0.30;0.30;;;4.70;99.90;;;;;;5072622;28;20493;-82
2023/01/10 09:06:28;;;;;;;0.30;0.30;;;4.70;99.90;;;;;;5072729;28;20449;-82
2023/01/10 09:08:55;;;;;;;0.90;0.63;;;4.80;99.90;;;;;;5072779;28;20476;-82
2023/01/10 09:11:22;;;;;;;0.30;0.30;;;4.70;99.90;;;;;;5074945;28;20822;-82
2023/01/10 09:13:49;;;;;;;0.30;0.30;;;4.60;99.90;;;;;;5072663;28;20441;-82
2023/01/10 09:16:17;;;;;;;0.70;0.30;;;4.60;99.90;;;;;;5072174;28;20481;-82
2023/01/10 09:18:44;;;;;;;0.40;0.30;;;4.60;99.90;;;;;;5074107;28;20963;-82
2023/01/10 09:21:11;;;;;;;2.20;0.63;;;4.60;99.90;;;;;;5075879;28;20445;-82
2023/01/10 09:23:38;;;;;;;0.47;0.47;;;4.50;99.90;;;;;;5075811;28;20940;-82
2023/01/10 09:26:06;;;;;;;0.50;0.50;;;4.60;99.90;;;;;;5076033;28;20511;-82
2023/01/10 09:28:32;;;;;;;0.40;0.30;;;4.60;99.90;;;;;;5076051;28;20457;-82
2023/01/10 09:31:00;;;;;;;0.40;0.30;;;4.70;99.90;;;;;;5075792;28;20445;-82
2023/01/10 09:33:28;;;;;;;0.40;0.40;;;4.80;99.90;;;;;;5075725;28;20929;-82
2023/01/10 09:35:57;;;;;;;0.30;0.20;;;4.80;99.90;;;;;;5075903;28;20492;-82
2023/01/10 09:38:24;;;;;;;0.63;0.30;;;4.80;99.90;;;;;;5075931;28;20449;-82
2023/01/10 09:41:04;;;;;;;2.70;0.60;;;4.90;99.90;;;;;;5075883;28;20452;-82
2023/01/10 09:43:42;;;;;;;0.30;0.27;;;5.00;99.90;;;;;;5075777;28;20476;-81
2023/01/10 09:46:14;;;;;;;0.40;0.30;;;5.20;99.90;;;;;;5075820;28;20436;-82
2023/01/10 09:48:49;;;;;;;0.30;0.30;;;5.40;99.90;;;;;;5075784;28;20433;-82
2023/01/10 09:51:29;;;;;;;2.23;0.40;;;5.50;99.90;;;;;;5075766;28;20432;-81
2023/01/10 09:53:59;;;;;;;3.07;0.93;;;5.60;99.90;;;;;;5075640;28;20410;-81
2023/01/10 09:56:27;;;;;;;1.90;0.60;;;5.60;99.90;;;;;;5075637;28;20430;-82
2023/01/10 09:58:54;;;;;;;0.30;0.30;;;5.70;99.90;;;;;;5075324;28;20445;-82
2023/01/10 10:01:27;;;;;;;0.40;0.30;;;5.80;99.90;;;;;;5075174;28;20971;-81
2023/01/10 10:04:04;;;;;;;0.90;0.90;;;5.90;99.90;;;;;;5074967;28;20476;-81
2023/01/10 10:06:33;;;;;;;0.40;0.40;;;6.10;99.90;;;;;;5075441;28;20430;-81
2023/01/10 10:09:00;;;;;;;0.40;0.30;;;6.20;99.90;;;;;;5075095;28;20461;-81
2023/01/10 10:11:49;;;;;;;0.30;0.30;;;6.70;99.90;;;;;;5075359;28;20430;-81
2023/01/10 10:14:30;;;;;;;0.33;0.30;;;7.40;99.90;;;;;;5075169;28;20466;-81
2023/01/10 10:17:15;;;;;;;0.60;0.60;;;7.70;99.90;;;;;;5074912;28;20440;-81
2023/01/10 10:19:55;;;;;;;0.40;0.30;;;7.70;99.90;;;;;;5055157;28;20446;-81
2023/01/10 10:22:32;;;;;;;0.40;0.30;;;7.70;99.90;;;;;;5054732;28;20798;-81
2023/01/10 10:25:12;;;;;;;0.67;0.67;;;7.60;99.90;;;;;;5054914;28;20501;-81
2023/01/10 10:27:45;;;;;;;0.40;0.30;;;7.40;99.90;;;;;;5055018;28;20430;-81
2023/01/10 10:30:31;;;;;;;0.30;0.30;;;7.00;99.90;;;;;;5053496;28;20903;-81
2023/01/10 10:33:22;;;;;;;0.30;0.23;;;6.90;99.90;;;;;;5054948;28;20443;-81
2023/01/10 10:35:56;;;;;;;0.30;0.30;;;6.80;99.90;;;;;;5054431;28;20847;-81
2023/01/10 10:38:29;;;;;;;0.60;0.30;;;6.70;99.90;;;;;;5054781;28;20521;-81
2023/01/10 10:40:58;;;;;;;0.40;0.40;;;6.60;99.90;;;;;;5054720;28;20435;-81
2023/01/10 10:43:30;;;;;;;0.30;0.30;;;6.50;99.90;;;;;;5054580;28;20446;-81
2023/01/10 10:46:00;;;;;;;0.40;0.40;;;6.50;99.90;;;;;;5054573;28;20474;-81
2023/01/10 10:48:30;;;;;;;0.50;0.40;;;6.30;99.90;;;;;;5054577;28;20446;-81
2023/01/10 10:51:12;;;;;;;0.30;0.30;;;6.30;99.90;;;;;;5054205;28;20447;-81
2023/01/10 10:53:38;;;;;;;0.30;0.30;;;6.20;99.90;;;;;;5054492;28;20435;-81
2023/01/10 10:56:11;;;;;;;0.40;0.30;;;6.20;99.90;;;;;;5054319;28;20471;-81
2023/01/10 10:58:39;;;;;;;0.33;0.30;;;6.20;99.90;;;;;;5054410;28;20442;-81
2023/01/10 11:01:06;;;;;;;0.40;0.40;;;6.20;99.90;;;;;;5054272;28;20451;-81
2023/01/10 11:03:39;;;;;;;0.50;0.47;;;6.20;99.90;;;;;;5053825;28;20934;-81
2023/01/10 11:06:09;;;;;;;0.30;0.30;;;6.30;99.90;;;;;;5054078;28;20466;-81
2023/01/10 11:08:40;;;;;;;0.30;0.30;;;6.30;99.90;;;;;;5053989;28;20449;-81
2023/01/10 11:11:17;;;;;;;0.40;0.30;;;6.40;99.90;;;;;;5053918;28;20449;-81
2023/01/10 11:13:48;;;;;;;0.30;0.30;;;6.50;99.90;;;;;;5054152;28;20435;-81
2023/01/10 11:16:27;;;;;;;1.00;0.40;;;6.50;99.90;;;;;;5053416;28;20482;-81
2023/01/10 11:19:16;;;;;;;0.60;0.50;;;6.60;99.90;;;;;;5053667;28;20910;-81
2023/01/10 11:21:48;;;;;;;0.30;0.20;;;6.60;99.90;;;;;;5053972;28;20411;-81
2023/01/10 11:24:22;;;;;;;0.50;0.50;;;6.70;99.90;;;;;;5053790;28;20525;-80
2023/01/10 11:26:51;;;;;;;0.30;0.30;;;6.70;99.90;;;;;;5053860;28;20438;-81
2023/01/10 11:29:20;;;;;;;0.30;0.30;;;6.70;99.90;;;;;;5053829;28;20446;-81
2023/01/10 11:31:48;;;;;;;1.90;0.30;;;6.70;99.90;;;;;;5053802;28;20470;-81
2023/01/10 11:34:23;;;;;;;0.40;0.30;;;6.60;99.90;;;;;;5053672;28;20489;-81
2023/01/10 11:36:57;;;;;;;0.50;0.30;;;6.60;99.90;;;;;;5053390;28;20441;-81
2023/01/10 11:39:24;;;;;;;0.30;0.30;;;6.60;99.90;;;;;;5053656;28;20438;-84
2023/01/10 11:41:52;;;;;;;0.30;0.30;;;6.80;99.90;;;;;;5053234;28;20454;-81
2023/01/10 11:44:23;;;;;;;0.70;0.50;;;6.80;99.90;;;;;;5053418;28;20486;-81
2023/01/10 11:46:53;;;;;;;0.30;0.30;;;6.80;99.90;;;;;;5053202;28;20968;-81
2023/01/10 11:49:28;;;;;;;0.40;0.30;;;6.90;99.90;;;;;;5053518;28;20454;-80
2023/01/10 11:52:02;;;;;;;0.30;0.20;;;7.00;99.90;;;;;;5053465;28;20517;-81
2023/01/10 11:54:31;;;;;;;0.30;0.30;;;7.00;99.90;;;;;;5053022;28;20472;-81
2023/01/10 11:57:00;;;;;;;0.30;0.30;;;7.10;99.90;;;;;;5053397;28;20458;-81
2023/01/10 11:59:28;;;;;;;0.30;0.20;;;7.10;99.90;;;;;;5053364;28;20446;-81
2023/01/10 12:01:58;;;;;;;0.30;0.20;;;7.10;99.90;;;;;;5053312;28;20808;-80
2023/01/10 12:04:28;;;;;;;0.30;0.30;;;7.00;99.90;;;;;;5053230;28;20493;-80
2023/01/10 12:06:59;;;;;;;0.30;0.30;;;6.80;99.90;;;;;;5053328;28;20449;-80
2023/01/10 12:09:35;;;;;;;0.60;0.50;;;6.60;99.90;;;;;;5053233;28;20454;-82
2023/01/10 12:12:03;;;;;;;0.30;0.30;;;6.70;99.90;;;;;;5053203;28;20449;-81
2023/01/10 12:14:30;;;;;;;2.30;0.50;;;6.70;99.90;;;;;;5052570;28;20470;-81
2023/01/10 12:17:02;;;;;;;0.30;0.30;;;6.80;99.90;;;;;;5053197;28;20457;-80
2023/01/10 12:19:29;;;;;;;0.40;0.30;;;6.80;99.90;;;;;;5053114;28;20439;-80
2023/01/10 12:22:02;;;;;;;0.40;0.30;;;6.70;99.90;;;;;;5053163;28;20462;-80
2023/01/10 12:24:35;;;;;;;0.30;0.30;;;6.60;99.90;;;;;;5052741;28;20482;-80
2023/01/10 12:27:03;;;;;;;0.30;0.20;;;6.50;99.90;;;;;;5053039;28;20435;-80
2023/01/10 12:29:35;;;;;;;0.30;0.20;;;6.40;99.90;;;;;;5053171;28;20458;-80
2023/01/10 12:32:04;;;;;;;0.30;0.30;;;6.40;99.90;;;;;;5052998;28;20454;-81
2023/01/10 12:34:44;;;;;;;0.30;0.30;;;6.30;99.90;;;;;;5052628;28;20845;-81
2023/01/10 12:37:19;;;;;;;0.30;0.30;;;6.20;99.90;;;;;;5053411;28;21008;-80
2023/01/10 12:39:48;;;;;;;0.40;0.40;;;6.30;99.90;;;;;;5052900;28;20441;-80
2023/01/10 12:45:16;;;;;;;0.30;0.30;;;6.40;99.90;;;;;;5052528;28;20476;-80
2023/01/10 12:47:55;;;;;;;0.30;0.30;;;6.50;99.90;;;;;;5052928;28;20798;-80
2023/01/10 12:50:26;;;;;;;0.30;0.30;;;6.60;99.90;;;;;;5052812;28;20437;-81
2023/01/10 12:52:59;;;;;;;0.50;0.30;;;6.60;99.90;;;;;;5053300;28;20810;-80
2023/01/10 12:55:29;;;;;;;0.30;0.30;;;6.70;99.90;;;;;;5057390;28;20462;-80
2023/01/10 12:57:59;;;;;;;0.30;0.30;;;6.80;99.90;;;;;;5056692;28;20437;-80
2023/01/10 13:00:30;;;;;;;0.30;0.20;;;6.80;99.90;;;;;;5057129;28;20438;-80
2023/01/10 13:02:59;;;;;;;0.30;0.20;;;7.00;99.90;;;;;;5056260;28;20929;-80
2023/01/10 13:05:28;;;;;;;0.50;0.50;;;7.00;99.90;;;;;;5056300;28;20512;-80
2023/01/10 13:08:00;;;;;;;0.30;0.30;;;7.00;99.90;;;;;;5056369;28;20465;-80
2023/01/10 13:10:28;;;;;;;0.30;0.30;;;6.90;99.90;;;;;;5056085;28;20426;-80
2023/01/10 13:13:01;;;;;;;0.40;0.30;;;6.90;99.90;;;;;;5056036;28;20450;-80
2023/01/10 13:15:32;;;;;;;0.30;0.30;;;6.90;99.90;;;;;;5055940;28;20482;-80
2023/01/10 13:18:03;;;;;;;0.60;0.47;;;6.90;99.90;;;;;;5056275;28;20441;-80
2023/01/10 13:20:47;;;;;;;0.50;0.40;;;7.00;99.90;;;;;;5056362;28;20458;-80